Time;durP1;ratioP1;P1;durP2;ratioP2;P2;SDS_P1;SDS_P2;PMS_P1;PMS_P2;Temp;Humidity;BMP_temperature;BMP_pressure;BME280_temperature;BME280_humidity;BME280_pressure;Samples;Min_cycle;Max_cycle;Signal;HPM_P1;HPM_P2
2022/09/10 00:00:59;;;;;;;3.67;3.30;;;15.60;95.80;;;;;;5025645;28;20188;-62
2022/09/10 00:03:25;;;;;;;3.70;3.20;;;15.60;95.80;;;;;;4983317;28;20201;-62
2022/09/10 00:05:52;;;;;;;3.30;3.10;;;15.60;95.80;;;;;;4976116;28;20186;-62
2022/09/10 00:08:18;;;;;;;8.43;3.80;;;15.60;95.90;;;;;;4997322;28;20197;-62
2022/09/10 00:10:47;;;;;;;3.57;3.27;;;15.60;95.80;;;;;;5023658;28;20215;-62
2022/09/10 00:13:16;;;;;;;3.70;3.30;;;15.60;95.80;;;;;;5008705;28;20199;-62
2022/09/10 00:15:44;;;;;;;4.27;3.20;;;15.50;95.80;;;;;;4985422;28;20291;-62
2022/09/10 00:18:11;;;;;;;8.97;3.80;;;15.50;95.80;;;;;;5022617;28;20194;-62
2022/09/10 00:20:49;;;;;;;5.20;3.30;;;15.50;95.90;;;;;;4995898;28;20222;-62
2022/09/10 00:23:16;;;;;;;6.70;3.37;;;15.50;95.90;;;;;;4999269;28;20203;-62
2022/09/10 00:25:42;;;;;;;3.83;3.30;;;15.60;95.90;;;;;;4993504;28;20199;-62
2022/09/10 00:28:08;;;;;;;6.47;3.33;;;15.60;95.90;;;;;;4983711;28;20197;-62
2022/09/10 00:30:46;;;;;;;3.90;2.80;;;15.50;95.80;;;;;;5008265;28;20200;-62
2022/09/10 00:33:13;;;;;;;3.63;3.17;;;15.50;95.90;;;;;;4990735;28;20239;-62
2022/09/10 00:35:39;;;;;;;4.93;3.37;;;15.50;95.80;;;;;;4979646;28;20252;-62
2022/09/10 00:38:06;;;;;;;7.67;3.37;;;15.50;95.80;;;;;;5007505;28;20211;-62
2022/09/10 00:40:33;;;;;;;5.63;3.10;;;15.40;95.80;;;;;;4995126;28;20239;-62
2022/09/10 00:42:59;;;;;;;3.93;3.60;;;15.40;95.80;;;;;;5027197;28;20203;-62
2022/09/10 00:45:30;;;;;;;3.50;3.20;;;15.40;95.80;;;;;;4994891;28;20197;-62
2022/09/10 00:48:06;;;;;;;4.23;2.93;;;15.30;95.70;;;;;;5020405;28;20192;-62
2022/09/10 00:50:37;;;;;;;4.00;3.33;;;15.30;95.70;;;;;;4993633;28;20248;-62
2022/09/10 00:53:06;;;;;;;5.10;3.77;;;15.30;95.70;;;;;;4976569;28;20212;-62
2022/09/10 00:55:37;;;;;;;7.93;3.50;;;15.30;95.90;;;;;;5015241;28;20213;-62
2022/09/10 00:58:07;;;;;;;4.53;3.60;;;15.30;95.80;;;;;;4976119;28;20238;-62
2022/09/10 01:00:32;;;;;;;4.57;3.20;;;15.30;95.80;;;;;;5017470;28;20201;-62
2022/09/10 01:02:58;;;;;;;4.70;2.97;;;15.30;95.70;;;;;;5002937;28;20228;-62
2022/09/10 01:05:26;;;;;;;5.13;4.43;;;15.30;95.70;;;;;;5021655;28;20199;-62
2022/09/10 01:07:52;;;;;;;7.13;4.40;;;15.30;95.80;;;;;;4992104;28;20204;-62
2022/09/10 01:10:25;;;;;;;5.33;4.07;;;15.30;95.80;;;;;;4995208;28;20193;-62
2022/09/10 01:13:30;;;;;;;4.10;3.77;;;15.30;95.80;;;;;;4987159;28;20198;-62
2022/09/10 01:16:24;;;;;;;5.70;4.00;;;15.30;95.80;;;;;;5009634;28;20240;-62
2022/09/10 01:19:07;;;;;;;4.93;3.73;;;15.30;95.80;;;;;;5016459;28;20195;-62
2022/09/10 01:22:02;;;;;;;3.23;3.03;;;15.20;95.80;;;;;;5008974;28;20204;-62
2022/09/10 01:24:50;;;;;;;4.37;3.43;;;15.20;95.70;;;;;;4987573;28;20193;-62
2022/09/10 01:27:44;;;;;;;4.40;3.80;;;15.10;95.70;;;;;;5013606;28;20195;-62
2022/09/10 01:30:20;;;;;;;4.57;3.70;;;15.00;95.60;;;;;;5020486;28;20277;-62
2022/09/10 01:33:12;;;;;;;4.77;4.13;;;15.00;95.60;;;;;;5018582;28;20269;-62
2022/09/10 01:35:56;;;;;;;6.13;4.13;;;15.00;95.70;;;;;;5007959;28;20218;-62
2022/09/10 01:38:31;;;;;;;4.20;3.80;;;15.00;95.80;;;;;;5015607;28;20185;-62
2022/09/10 01:40:58;;;;;;;6.13;3.20;;;15.10;95.90;;;;;;5023830;28;20188;-62
2022/09/10 01:43:24;;;;;;;11.03;4.27;;;15.10;95.90;;;;;;5005934;28;20288;-62
2022/09/10 01:46:14;;;;;;;4.83;3.57;;;15.10;95.90;;;;;;5003122;28;20204;-62
2022/09/10 01:48:54;;;;;;;3.97;3.57;;;15.20;96.00;;;;;;4987248;28;20184;-62
2022/09/10 01:51:48;;;;;;;4.47;3.50;;;15.20;96.00;;;;;;4980967;28;20191;-62
2022/09/10 01:54:55;;;;;;;5.90;3.90;;;15.20;96.00;;;;;;5008819;28;20205;-63
2022/09/10 01:57:51;;;;;;;3.80;3.40;;;15.20;96.00;;;;;;5008301;28;20297;-63
2022/09/10 02:00:20;;;;;;;5.63;3.13;;;15.20;95.90;;;;;;4985942;28;20201;-62
2022/09/10 02:02:51;;;;;;;9.40;3.57;;;15.20;95.90;;;;;;5005078;28;20214;-62
2022/09/10 02:05:20;;;;;;;12.53;3.97;;;15.10;95.90;;;;;;4977649;28;20189;-62
2022/09/10 02:07:48;;;;;;;4.13;3.00;;;15.20;95.90;;;;;;5014105;28;20196;-63
2022/09/10 02:10:14;;;;;;;3.57;3.27;;;15.10;95.90;;;;;;5019138;28;20192;-62
2022/09/10 02:12:40;;;;;;;6.63;3.27;;;15.20;95.90;;;;;;5001948;28;20189;-61
2022/09/10 02:15:08;;;;;;;4.23;3.43;;;15.20;95.90;;;;;;5014939;28;20216;-61
2022/09/10 02:17:38;;;;;;;5.43;3.53;;;15.10;95.80;;;;;;4993291;28;20190;-61
2022/09/10 02:20:14;;;;;;;4.30;3.80;;;15.10;95.80;;;;;;4988712;28;20189;-61
2022/09/10 02:22:45;;;;;;;4.73;3.47;;;15.10;95.90;;;;;;4993091;28;20197;-62
2022/09/10 02:25:11;;;;;;;2.60;2.50;;;15.20;95.90;;;;;;4974618;28;20280;-62
2022/09/10 02:27:37;;;;;;;3.37;2.73;;;15.20;95.90;;;;;;5022970;28;20274;-62
2022/09/10 02:30:04;;;;;;;4.60;3.40;;;15.20;95.80;;;;;;5009018;28;20211;-61
2022/09/10 02:32:30;;;;;;;3.53;3.10;;;15.10;95.80;;;;;;4996988;28;20327;-61
2022/09/10 02:34:56;;;;;;;8.03;3.40;;;15.10;95.80;;;;;;4995212;28;20337;-62
2022/09/10 02:37:23;;;;;;;3.23;2.93;;;15.10;95.80;;;;;;5006393;28;20284;-61
2022/09/10 02:39:48;;;;;;;3.03;2.70;;;15.10;95.80;;;;;;5016744;28;20212;-61
2022/09/10 02:42:16;;;;;;;4.93;2.93;;;14.90;95.60;;;;;;5003420;28;20214;-61
2022/09/10 02:44:48;;;;;;;6.10;3.67;;;14.90;95.70;;;;;;4979628;28;20193;-61
2022/09/10 02:47:14;;;;;;;4.50;3.23;;;15.00;95.80;;;;;;4994267;28;20193;-62
2022/09/10 02:49:39;;;;;;;3.40;3.10;;;15.00;95.80;;;;;;5018297;28;20288;-62
2022/09/10 02:52:05;;;;;;;6.30;3.23;;;15.00;95.80;;;;;;4983593;28;20223;-61
2022/09/10 02:54:31;;;;;;;8.30;2.83;;;14.90;95.70;;;;;;5019547;28;20293;-62
2022/09/10 02:56:57;;;;;;;4.13;2.70;;;14.90;95.70;;;;;;5030403;28;20457;-61
2022/09/10 02:59:23;;;;;;;3.07;2.63;;;14.80;95.70;;;;;;5003052;28;20248;-61
2022/09/10 03:01:49;;;;;;;4.87;2.93;;;14.80;95.70;;;;;;5027300;28;20185;-61
2022/09/10 03:04:16;;;;;;;3.23;2.93;;;14.80;95.70;;;;;;4995824;28;20246;-61
2022/09/10 03:06:45;;;;;;;10.17;3.60;;;14.80;95.70;;;;;;5024675;28;20197;-61
2022/09/10 03:09:11;;;;;;;5.13;2.80;;;14.90;95.80;;;;;;5021693;28;20218;-62
2022/09/10 03:11:39;;;;;;;9.13;3.30;;;14.90;95.80;;;;;;5002937;28;20237;-61
2022/09/10 03:14:07;;;;;;;4.77;2.67;;;14.90;95.80;;;;;;4985978;28;20217;-62
2022/09/10 03:16:34;;;;;;;3.50;2.80;;;14.90;95.70;;;;;;5025722;28;20289;-61
2022/09/10 03:18:59;;;;;;;4.33;3.27;;;14.90;95.80;;;;;;5010719;28;20185;-61
2022/09/10 03:21:25;;;;;;;3.77;3.00;;;14.80;95.70;;;;;;4980536;28;20226;-61
2022/09/10 03:23:52;;;;;;;3.50;2.77;;;14.80;95.70;;;;;;4983042;28;20236;-61
2022/09/10 03:26:19;;;;;;;5.83;3.03;;;14.80;95.60;;;;;;5042517;28;20284;-61
2022/09/10 03:28:46;;;;;;;5.57;3.17;;;14.80;95.70;;;;;;5005419;28;20193;-61
2022/09/10 03:31:12;;;;;;;3.73;3.00;;;14.80;95.60;;;;;;4987242;28;20248;-61
2022/09/10 03:33:39;;;;;;;6.43;2.90;;;14.70;95.60;;;;;;4979209;28;20196;-61
2022/09/10 03:36:06;;;;;;;8.80;3.00;;;14.80;95.80;;;;;;4996278;28;20190;-61
2022/09/10 03:38:32;;;;;;;3.27;2.80;;;14.80;95.80;;;;;;4991302;28;20189;-61
2022/09/10 03:41:00;;;;;;;3.10;2.80;;;14.80;95.70;;;;;;5025109;28;20193;-61
2022/09/10 03:43:26;;;;;;;4.43;3.23;;;14.80;95.80;;;;;;5019604;28;20194;-61
2022/09/10 03:45:52;;;;;;;5.50;3.10;;;14.80;95.80;;;;;;5005857;28;20194;-61
2022/09/10 03:48:18;;;;;;;3.97;3.17;;;14.80;95.70;;;;;;5001334;28;20189;-61
2022/09/10 03:50:45;;;;;;;5.23;3.43;;;14.80;95.70;;;;;;5019613;28;20189;-61
2022/09/10 03:53:11;;;;;;;4.37;3.00;;;14.80;95.70;;;;;;5018849;28;20215;-61
2022/09/10 03:55:37;;;;;;;3.27;2.70;;;14.70;95.70;;;;;;4995407;28;20221;-62
2022/09/10 03:58:04;;;;;;;4.90;2.93;;;14.70;95.70;;;;;;5005285;28;20198;-61
2022/09/10 04:00:31;;;;;;;7.77;3.37;;;14.70;95.70;;;;;;4985432;28;20232;-61
2022/09/10 04:02:57;;;;;;;3.90;3.20;;;14.60;95.60;;;;;;4984551;28;20208;-61
2022/09/10 04:05:24;;;;;;;7.33;3.67;;;14.60;95.60;;;;;;4999825;28;20189;-61
2022/09/10 04:07:50;;;;;;;2.90;2.63;;;14.50;95.50;;;;;;4987402;28;20340;-61
2022/09/10 04:10:16;;;;;;;4.03;3.20;;;14.50;95.50;;;;;;5000174;28;20296;-61
2022/09/10 04:12:42;;;;;;;7.17;2.83;;;14.60;95.60;;;;;;5014005;28;20200;-61
2022/09/10 04:15:08;;;;;;;4.67;3.30;;;14.50;95.50;;;;;;5010119;28;20214;-61
2022/09/10 04:17:34;;;;;;;5.53;2.70;;;14.40;95.40;;;;;;5029438;28;20289;-61
2022/09/10 04:19:59;;;;;;;3.27;2.97;;;14.40;95.40;;;;;;5021591;28;20224;-61
2022/09/10 04:22:27;;;;;;;5.07;3.13;;;14.40;95.40;;;;;;5017138;28;20203;-59
2022/09/10 04:24:52;;;;;;;5.70;3.43;;;14.40;95.40;;;;;;4996292;28;20192;-59
2022/09/10 04:27:18;;;;;;;4.27;3.23;;;14.30;95.40;;;;;;5019162;28;20252;-59
2022/09/10 04:29:43;;;;;;;5.27;3.47;;;14.30;95.30;;;;;;4995260;28;20210;-59
2022/09/10 04:32:09;;;;;;;2.80;2.60;;;14.30;95.30;;;;;;5008072;28;20280;-59
2022/09/10 04:34:35;;;;;;;3.47;3.17;;;14.30;95.30;;;;;;5021346;28;20247;-59
2022/09/10 04:37:00;;;;;;;3.73;2.60;;;14.20;95.30;;;;;;5001022;28;20189;-59
2022/09/10 04:39:26;;;;;;;6.73;3.13;;;14.20;95.20;;;;;;5011705;28;20188;-59
2022/09/10 04:41:52;;;;;;;8.23;3.60;;;14.10;95.10;;;;;;5034592;28;20252;-59
2022/09/10 04:44:18;;;;;;;7.03;3.50;;;14.00;95.10;;;;;;4976384;28;20197;-59
2022/09/10 04:46:44;;;;;;;4.30;3.57;;;14.00;95.10;;;;;;5000204;28;20220;-59
2022/09/10 04:49:10;;;;;;;4.47;3.07;;;14.10;95.40;;;;;;4997227;28;20227;-59
2022/09/10 04:51:36;;;;;;;4.07;3.50;;;14.00;95.30;;;;;;4991306;28;20193;-59
2022/09/10 04:54:01;;;;;;;3.50;3.20;;;14.10;95.50;;;;;;4995798;28;20313;-59
2022/09/10 04:56:27;;;;;;;6.47;3.10;;;14.10;95.40;;;;;;4982800;28;20193;-59
2022/09/10 04:58:53;;;;;;;3.03;2.73;;;14.10;95.30;;;;;;4993128;28;20184;-59
2022/09/10 05:01:18;;;;;;;5.27;2.73;;;14.00;95.30;;;;;;4997824;28;20188;-61
2022/09/10 05:03:44;;;;;;;7.83;3.10;;;14.00;95.20;;;;;;4992748;28;20191;-61
2022/09/10 05:06:10;;;;;;;3.43;2.60;;;13.90;95.10;;;;;;4982167;28;20204;-61
2022/09/10 05:08:35;;;;;;;4.93;2.60;;;13.90;95.10;;;;;;5012980;28;20204;-61
2022/09/10 05:11:01;;;;;;;5.63;2.77;;;13.80;95.00;;;;;;4986872;28;20188;-61
2022/09/10 05:13:29;;;;;;;6.80;3.00;;;13.80;95.10;;;;;;4998457;28;20182;-60
2022/09/10 05:15:57;;;;;;;3.93;3.00;;;13.80;95.00;;;;;;4978370;28;20185;-59
2022/09/10 05:18:24;;;;;;;2.97;2.67;;;13.80;95.10;;;;;;4977739;28;20208;-59
2022/09/10 05:20:50;;;;;;;3.17;2.87;;;13.80;95.20;;;;;;4981636;28;20204;-59
2022/09/10 05:23:16;;;;;;;7.23;4.00;;;13.90;95.40;;;;;;5004656;28;20189;-59
2022/09/10 05:25:43;;;;;;;3.03;2.73;;;13.90;95.50;;;;;;5014586;28;20273;-59
2022/09/10 05:28:10;;;;;;;5.07;3.07;;;13.90;95.30;;;;;;5027368;28;20188;-59
2022/09/10 05:30:35;;;;;;;5.33;3.27;;;13.90;95.20;;;;;;5015267;28;20227;-59
2022/09/10 05:33:02;;;;;;;3.23;2.93;;;13.90;95.20;;;;;;4991368;28;20241;-59
2022/09/10 05:35:28;;;;;;;3.77;3.37;;;13.80;95.20;;;;;;4979066;28;20248;-59
2022/09/10 05:37:59;;;;;;;6.50;3.90;;;13.80;95.20;;;;;;5001205;28;20259;-61
2022/09/10 05:40:28;;;;;;;4.73;3.77;;;13.90;95.40;;;;;;4997611;28;20185;-59
2022/09/10 05:42:53;;;;;;;3.43;3.13;;;13.90;95.40;;;;;;5010502;28;20189;-59
2022/09/10 05:45:19;;;;;;;8.97;3.20;;;14.00;95.60;;;;;;4981275;28;20219;-59
2022/09/10 05:47:46;;;;;;;4.60;3.43;;;14.00;95.50;;;;;;5023200;28;20228;-59
2022/09/10 05:50:13;;;;;;;3.60;3.20;;;14.00;95.40;;;;;;5008662;28;20260;-59
2022/09/10 05:52:39;;;;;;;3.90;3.60;;;13.90;95.40;;;;;;4999540;28;20219;-59
2022/09/10 05:55:06;;;;;;;4.27;2.70;;;14.00;95.40;;;;;;4989327;28;20212;-59
2022/09/10 05:57:31;;;;;;;3.10;2.87;;;13.90;95.30;;;;;;5004902;28;20192;-59
2022/09/10 05:59:58;;;;;;;5.20;3.17;;;13.80;95.30;;;;;;4992631;28;20229;-59
2022/09/10 06:02:25;;;;;;;2.87;2.63;;;13.90;95.40;;;;;;4978743;28;20228;-59
2022/09/10 06:04:51;;;;;;;4.77;3.40;;;14.00;95.40;;;;;;5015219;28;20201;-59
2022/09/10 06:07:16;;;;;;;2.93;2.73;;;14.00;95.70;;;;;;4977449;28;20201;-59
2022/09/10 06:09:42;;;;;;;5.43;3.00;;;14.00;95.50;;;;;;5002583;28;20193;-59
2022/09/10 06:12:08;;;;;;;4.37;3.20;;;14.00;95.50;;;;;;5021661;28;20187;-59
2022/09/10 06:14:33;;;;;;;5.07;3.37;;;14.00;95.70;;;;;;4999136;28;20280;-61
2022/09/10 06:17:00;;;;;;;4.97;3.27;;;14.00;95.60;;;;;;5023189;28;20193;-60
2022/09/10 06:19:25;;;;;;;3.90;3.47;;;14.00;95.60;;;;;;5002220;28;20189;-60
2022/09/10 06:21:51;;;;;;;6.23;3.80;;;14.10;95.70;;;;;;5019305;28;20181;-60
2022/09/10 06:24:18;;;;;;;3.83;3.53;;;14.10;95.60;;;;;;5007429;28;20275;-60
2022/09/10 06:26:49;;;;;;;4.93;3.73;;;14.10;95.70;;;;;;5000335;28;20239;-61
2022/09/10 06:29:18;;;;;;;3.73;3.43;;;14.20;95.80;;;;;;5012533;28;20192;-62
2022/09/10 06:31:45;;;;;;;5.80;3.50;;;14.20;95.80;;;;;;5019976;28;20251;-61
2022/09/10 06:34:11;;;;;;;4.40;4.00;;;14.20;95.80;;;;;;5014580;28;20208;-60
2022/09/10 06:36:37;;;;;;;6.23;3.57;;;14.30;95.80;;;;;;5022683;28;20189;-61
2022/09/10 06:39:03;;;;;;;3.77;3.37;;;14.30;95.80;;;;;;4999150;28;20181;-61
2022/09/10 06:41:29;;;;;;;3.50;3.20;;;14.30;95.80;;;;;;5009776;28;20189;-60
2022/09/10 06:43:56;;;;;;;4.07;3.77;;;14.30;95.80;;;;;;4996551;28;20189;-60
2022/09/10 06:46:22;;;;;;;4.10;3.80;;;14.30;95.80;;;;;;5006930;28;20243;-61
2022/09/10 06:48:48;;;;;;;4.37;3.60;;;14.30;95.80;;;;;;4991408;28;20189;-61
2022/09/10 06:51:15;;;;;;;4.40;3.60;;;14.30;95.80;;;;;;5018926;28;20200;-61
2022/09/10 06:53:42;;;;;;;4.07;3.47;;;14.30;95.80;;;;;;5013212;28;20193;-61
2022/09/10 06:56:10;;;;;;;5.43;3.40;;;14.30;95.80;;;;;;4979391;28;20194;-60
2022/09/10 06:58:37;;;;;;;7.40;3.57;;;14.30;95.90;;;;;;5017378;28;20193;-60
2022/09/10 07:01:16;;;;;;;5.20;3.60;;;14.40;95.90;;;;;;5028813;28;20232;-60
2022/09/10 07:03:43;;;;;;;3.43;3.13;;;14.40;95.90;;;;;;4978835;28;20189;-60
2022/09/10 07:06:12;;;;;;;6.33;3.50;;;14.40;95.90;;;;;;4995232;28;20287;-60
2022/09/10 07:08:38;;;;;;;5.87;3.47;;;14.50;95.90;;;;;;5012298;28;20197;-60
2022/09/10 07:11:06;;;;;;;5.20;3.17;;;14.40;95.90;;;;;;5013467;28;20273;-60
2022/09/10 07:13:33;;;;;;;5.00;3.43;;;14.50;96.00;;;;;;4978832;28;20256;-60
2022/09/10 07:16:00;;;;;;;6.93;3.97;;;14.60;96.10;;;;;;4979413;28;20217;-60
2022/09/10 07:18:27;;;;;;;5.80;3.63;;;14.60;96.10;;;;;;5001274;28;20232;-60
2022/09/10 07:20:53;;;;;;;4.57;3.73;;;14.70;96.10;;;;;;5013937;28;20276;-60
2022/09/10 07:23:20;;;;;;;5.43;3.60;;;14.70;96.10;;;;;;4997681;28;20319;-60
2022/09/10 07:25:46;;;;;;;4.70;3.73;;;14.70;96.10;;;;;;5024980;28;20280;-60
2022/09/10 07:28:15;;;;;;;7.60;4.00;;;14.70;96.10;;;;;;4991048;28;20272;-60
2022/09/10 07:30:42;;;;;;;8.27;3.90;;;14.80;96.10;;;;;;5016968;28;20188;-60
2022/09/10 07:33:10;;;;;;;9.23;3.93;;;14.80;96.10;;;;;;5010577;28;20237;-59
2022/09/10 07:35:36;;;;;;;4.43;3.60;;;14.80;96.10;;;;;;5000172;28;20244;-59
2022/09/10 07:38:06;;;;;;;3.47;3.17;;;14.90;96.10;;;;;;4994003;28;20186;-60
2022/09/10 07:40:33;;;;;;;3.10;2.80;;;14.90;96.10;;;;;;5023927;28;20272;-59
2022/09/10 07:42:59;;;;;;;3.37;3.07;;;14.90;96.10;;;;;;5004845;28;20189;-59
2022/09/10 07:45:26;;;;;;;4.53;3.13;;;15.00;96.20;;;;;;5020731;28;20284;-59
2022/09/10 07:47:52;;;;;;;3.30;3.00;;;15.00;96.20;;;;;;4997483;28;20204;-59
2022/09/10 07:50:18;;;;;;;3.23;3.00;;;15.00;96.20;;;;;;4992715;28;20186;-60
2022/09/10 07:52:44;;;;;;;3.17;2.97;;;15.20;96.20;;;;;;5002241;28;20188;-60
2022/09/10 07:55:09;;;;;;;2.80;2.60;;;15.20;96.20;;;;;;4997763;28;20261;-60
2022/09/10 07:57:39;;;;;;;3.20;2.90;;;15.30;96.30;;;;;;4997389;28;20189;-60
2022/09/10 08:00:11;;;;;;;3.43;2.70;;;15.30;96.30;;;;;;5015953;28;20184;-59
2022/09/10 08:02:38;;;;;;;4.23;2.40;;;15.40;96.40;;;;;;5008920;28;20244;-59
2022/09/10 08:05:04;;;;;;;2.60;2.40;;;15.50;96.40;;;;;;5004048;28;20217;-59
2022/09/10 08:07:30;;;;;;;2.63;2.37;;;15.60;96.40;;;;;;4978044;28;20189;-59
2022/09/10 08:09:56;;;;;;;3.20;2.00;;;15.60;96.50;;;;;;4996199;28;20524;-59
2022/09/10 08:12:24;;;;;;;2.03;1.80;;;15.80;96.40;;;;;;5010933;28;20190;-59
2022/09/10 08:14:51;;;;;;;2.53;2.33;;;15.80;96.40;;;;;;4997241;28;20209;-59
2022/09/10 08:17:17;;;;;;;4.53;1.90;;;15.80;96.40;;;;;;5001491;28;20194;-59
2022/09/10 08:19:42;;;;;;;2.83;2.03;;;15.80;96.30;;;;;;5021745;28;20177;-60
2022/09/10 08:22:08;;;;;;;2.13;2.03;;;15.80;96.20;;;;;;4990764;28;20253;-59
2022/09/10 08:24:34;;;;;;;3.50;2.53;;;15.80;96.20;;;;;;5007676;28;20197;-58
2022/09/10 08:27:00;;;;;;;2.83;2.60;;;15.80;96.20;;;;;;4980287;28;20201;-58
2022/09/10 08:29:25;;;;;;;6.30;2.53;;;15.80;96.20;;;;;;5021366;28;20192;-59
2022/09/10 08:31:51;;;;;;;2.33;2.13;;;15.80;96.10;;;;;;4983986;28;20241;-60
2022/09/10 08:34:17;;;;;;;2.30;2.10;;;15.80;96.00;;;;;;4994833;28;20205;-59
2022/09/10 08:36:42;;;;;;;1.90;1.70;;;15.80;96.10;;;;;;4997595;28;20189;-59
2022/09/10 08:39:08;;;;;;;3.73;1.77;;;15.70;95.20;;;;;;5028754;28;20189;-59
2022/09/10 08:41:40;;;;;;;2.30;1.63;;;15.60;95.40;;;;;;5019962;28;20272;-59
2022/09/10 08:44:08;;;;;;;2.00;1.53;;;15.70;95.60;;;;;;5025862;28;20557;-59
2022/09/10 08:46:51;;;;;;;0.97;0.87;;;15.70;95.70;;;;;;5015751;28;20180;-59
2022/09/10 08:49:49;;;;;;;0.60;0.60;;;15.60;91.40;;;;;;4988519;28;20188;-59
2022/09/10 08:52:28;;;;;;;0.90;0.70;;;15.70;84.70;;;;;;4993787;28;20279;-58
2022/09/10 08:55:15;;;;;;;1.83;0.50;;;15.80;85.10;;;;;;4983129;28;20209;-59
2022/09/10 08:58:10;;;;;;;0.83;0.60;;;15.70;83.10;;;;;;5017944;28;20180;-59
2022/09/10 09:00:43;;;;;;;2.53;0.70;;;15.50;88.50;;;;;;4991498;28;20288;-59
2022/09/10 09:03:36;;;;;;;2.30;0.70;;;15.50;83.00;;;;;;5009635;28;20208;-59
2022/09/10 09:06:04;;;;;;;0.77;0.40;;;15.50;87.80;;;;;;5014884;28;20189;-59
2022/09/10 09:08:35;;;;;;;1.17;0.80;;;15.50;87.50;;;;;;4979390;28;20194;-59
2022/09/10 09:11:22;;;;;;;1.03;0.43;;;15.70;86.80;;;;;;4978480;28;20665;-59
2022/09/10 09:13:47;;;;;;;2.40;0.80;;;16.10;81.40;;;;;;5014705;28;20383;-59
2022/09/10 09:16:22;;;;;;;2.33;0.70;;;16.00;83.10;;;;;;4991590;28;20241;-59
2022/09/10 09:19:06;;;;;;;1.53;0.77;;;16.00;86.60;;;;;;5008711;28;20291;-59
2022/09/10 09:21:44;;;;;;;2.30;0.50;;;15.90;87.60;;;;;;4976372;28;20181;-59
2022/09/10 09:24:22;;;;;;;1.37;0.67;;;16.10;81.30;;;;;;5007848;28;20252;-59
2022/09/10 09:26:51;;;;;;;1.97;1.20;;;16.30;83.30;;;;;;4978613;28;20188;-59
2022/09/10 09:29:26;;;;;;;3.27;1.40;;;16.60;82.80;;;;;;5011154;28;20203;-59
2022/09/10 09:31:59;;;;;;;1.97;1.27;;;16.80;83.00;;;;;;5013758;28;20248;-59
2022/09/10 09:34:55;;;;;;;1.53;1.30;;;16.70;86.10;;;;;;4982944;28;20210;-59
2022/09/10 09:37:25;;;;;;;1.73;1.20;;;16.60;87.80;;;;;;5012742;28;20205;-59
2022/09/10 09:40:24;;;;;;;1.10;1.00;;;16.70;86.10;;;;;;5016114;28;20181;-59
2022/09/10 09:43:00;;;;;;;2.00;1.00;;;16.60;88.20;;;;;;5007537;28;20204;-59
2022/09/10 09:45:42;;;;;;;1.33;1.00;;;17.20;80.70;;;;;;5020555;28;20196;-59
2022/09/10 09:48:14;;;;;;;2.10;0.70;;;17.50;79.70;;;;;;4978153;28;20195;-59
2022/09/10 09:50:44;;;;;;;1.43;0.90;;;17.50;76.70;;;;;;5017921;28;20194;-59
2022/09/10 09:53:19;;;;;;;1.10;0.90;;;17.30;78.10;;;;;;5012156;28;20203;-59
2022/09/10 09:55:54;;;;;;;1.27;1.00;;;17.00;83.20;;;;;;5020967;28;20298;-59
2022/09/10 09:58:20;;;;;;;2.17;0.97;;;16.90;82.90;;;;;;5007641;28;20200;-59
2022/09/10 10:01:04;;;;;;;1.77;1.07;;;16.80;85.00;;;;;;5026287;28;20184;-59
2022/09/10 10:03:31;;;;;;;1.20;0.90;;;17.00;82.00;;;;;;5009550;28;20204;-59
2022/09/10 10:06:05;;;;;;;3.03;0.90;;;17.30;79.70;;;;;;5012490;28;20201;-59
2022/09/10 10:08:41;;;;;;;2.93;0.70;;;17.60;76.50;;;;;;4975613;28;20188;-59
2022/09/10 10:11:07;;;;;;;0.80;0.63;;;17.40;78.70;;;;;;4991161;28;20191;-59
2022/09/10 10:13:44;;;;;;;2.07;0.77;;;17.30;82.00;;;;;;5031538;28;20209;-59
2022/09/10 10:16:25;;;;;;;1.47;1.00;;;17.40;80.10;;;;;;5015850;28;20198;-59
2022/09/10 10:18:51;;;;;;;1.40;0.80;;;17.30;81.30;;;;;;4983810;28;20172;-59
2022/09/10 10:21:18;;;;;;;0.57;0.57;;;17.50;79.90;;;;;;4988244;28;20288;-59
2022/09/10 10:23:45;;;;;;;1.67;0.73;;;17.80;77.20;;;;;;5018580;28;20189;-59
2022/09/10 10:26:20;;;;;;;1.33;0.77;;;17.70;79.80;;;;;;4973790;28;20200;-59
2022/09/10 10:29:00;;;;;;;3.90;0.90;;;17.50;82.80;;;;;;5009527;28;20204;-59
2022/09/10 10:31:52;;;;;;;0.80;0.50;;;17.80;77.40;;;;;;4981643;28;20310;-60
2022/09/10 10:34:36;;;;;;;1.30;0.67;;;18.00;78.30;;;;;;5001954;28;20228;-60
2022/09/10 10:37:20;;;;;;;1.30;0.57;;;17.80;77.80;;;;;;4983925;28;20192;-60
2022/09/10 10:40:10;;;;;;;1.83;0.80;;;17.60;81.30;;;;;;5020313;28;20181;-60
2022/09/10 10:42:52;;;;;;;1.20;0.70;;;17.60;82.50;;;;;;4988149;28;20190;-60
2022/09/10 10:45:33;;;;;;;1.17;0.47;;;18.20;74.50;;;;;;4985178;28;20185;-60
2022/09/10 10:48:14;;;;;;;0.53;0.53;;;18.70;72.00;;;;;;5020574;28;20189;-60
2022/09/10 10:51:05;;;;;;;1.13;0.87;;;18.60;76.60;;;;;;5022184;28;20220;-59
2022/09/10 10:53:36;;;;;;;0.53;0.50;;;18.30;81.30;;;;;;4989779;28;20188;-60
2022/09/10 10:56:10;;;;;;;0.80;0.53;;;18.30;82.10;;;;;;5007292;28;20288;-59
2022/09/10 10:58:43;;;;;;;1.37;0.70;;;18.30;78.70;;;;;;5018340;28;20267;-60
2022/09/10 11:01:24;;;;;;;1.37;0.60;;;18.50;78.30;;;;;;5022140;28;20193;-60
2022/09/10 11:03:59;;;;;;;0.60;0.60;;;19.00;76.90;;;;;;4983340;28;20180;-60
2022/09/10 11:06:40;;;;;;;0.57;0.57;;;18.90;78.60;;;;;;4982719;28;20216;-60
2022/09/10 11:09:27;;;;;;;1.33;0.80;;;19.20;79.00;;;;;;4980161;28;20188;-60
2022/09/10 11:12:05;;;;;;;0.47;0.47;;;19.20;76.80;;;;;;4978463;28;20292;-60
2022/09/10 11:14:47;;;;;;;1.27;0.67;;;19.30;77.20;;;;;;4982325;28;20295;-59
2022/09/10 11:17:27;;;;;;;2.00;0.70;;;19.60;78.20;;;;;;4976252;28;20181;-60
2022/09/10 11:20:02;;;;;;;1.43;0.60;;;19.80;78.20;;;;;;5013279;28;20193;-60
2022/09/10 11:22:33;;;;;;;4.03;0.43;;;19.80;77.00;;;;;;5025259;28;20185;-60
2022/09/10 11:25:15;;;;;;;0.90;0.70;;;19.80;75.90;;;;;;4993598;28;20184;-60
2022/09/10 11:27:50;;;;;;;0.50;0.50;;;19.80;76.40;;;;;;5014297;28;20197;-59
2022/09/10 11:30:16;;;;;;;1.53;0.40;;;19.80;69.50;;;;;;5013687;28;20339;-60
2022/09/10 11:33:06;;;;;;;0.80;0.60;;;19.70;68.70;;;;;;5030233;28;20244;-60
2022/09/10 11:35:52;;;;;;;0.83;0.60;;;19.50;72.60;;;;;;5022541;28;20294;-60
2022/09/10 11:38:34;;;;;;;0.87;0.60;;;19.40;72.10;;;;;;5019185;28;20185;-60
2022/09/10 11:41:05;;;;;;;0.73;0.43;;;19.60;63.30;;;;;;5019116;28;20201;-60
2022/09/10 11:43:48;;;;;;;1.30;0.60;;;19.50;70.60;;;;;;5017162;28;20275;-60
2022/09/10 11:46:31;;;;;;;0.70;0.50;;;19.40;73.20;;;;;;4985592;28;20200;-59
2022/09/10 11:49:05;;;;;;;0.57;0.50;;;19.60;67.10;;;;;;4993438;28;20195;-59
2022/09/10 11:51:36;;;;;;;1.37;0.50;;;19.80;68.10;;;;;;5026615;28;20279;-60
2022/09/10 11:54:09;;;;;;;1.17;0.60;;;19.80;65.80;;;;;;4997970;28;20188;-59
2022/09/10 11:56:40;;;;;;;1.50;0.60;;;20.10;60.50;;;;;;4992126;28;20198;-60
2022/09/10 11:59:28;;;;;;;1.03;0.40;;;20.30;60.10;;;;;;4985214;28;20206;-60
2022/09/10 12:02:02;;;;;;;1.53;0.53;;;20.30;65.40;;;;;;5025804;28;20200;-60
2022/09/10 12:04:40;;;;;;;0.33;0.33;;;20.10;66.60;;;;;;5009907;28;20188;-59
2022/09/10 12:07:15;;;;;;;0.60;0.47;;;20.10;68.70;;;;;;5007242;28;20193;-60
2022/09/10 12:10:21;;;;;;;0.77;0.50;;;20.00;66.60;;;;;;5009160;28;20195;-60
2022/09/10 12:12:49;;;;;;;1.00;0.47;;;20.10;61.80;;;;;;4989419;28;20184;-60
2022/09/10 12:15:26;;;;;;;0.40;0.40;;;20.10;65.40;;;;;;5006543;28;20216;-59
2022/09/10 12:18:20;;;;;;;0.47;0.40;;;20.20;70.70;;;;;;4991107;28;20189;-59
2022/09/10 12:20:55;;;;;;;0.83;0.40;;;20.10;67.80;;;;;;4984261;28;20204;-60
2022/09/10 12:23:35;;;;;;;1.37;0.60;;;20.00;70.00;;;;;;5022529;28;20191;-60
2022/09/10 12:26:18;;;;;;;0.80;0.50;;;20.20;60.30;;;;;;4986036;28;20206;-59
2022/09/10 12:28:48;;;;;;;1.13;0.50;;;20.20;63.60;;;;;;5019835;28;20184;-60
2022/09/10 12:31:15;;;;;;;1.10;0.80;;;20.40;61.70;;;;;;5022326;28;20216;-60
2022/09/10 12:33:41;;;;;;;1.13;0.67;;;21.10;64.70;;;;;;5022356;28;20207;-59
2022/09/10 12:36:07;;;;;;;0.80;0.73;;;21.80;62.80;;;;;;5010861;28;20209;-60
2022/09/10 12:38:52;;;;;;;0.97;0.60;;;22.40;61.50;;;;;;5001462;28;20185;-60
2022/09/10 12:41:24;;;;;;;0.93;0.50;;;22.50;59.90;;;;;;4984809;28;20282;-60
2022/09/10 12:43:56;;;;;;;3.27;0.70;;;22.50;59.60;;;;;;4992963;28;20191;-60
2022/09/10 12:46:24;;;;;;;1.17;0.70;;;22.50;64.60;;;;;;4983071;28;20189;-60
2022/09/10 12:49:04;;;;;;;0.60;0.60;;;22.50;62.20;;;;;;5001910;28;20188;-60
2022/09/10 12:51:56;;;;;;;0.73;0.57;;;22.20;56.80;;;;;;5023334;28;20211;-60
2022/09/10 12:54:25;;;;;;;1.07;0.53;;;22.00;60.70;;;;;;4982133;28;20212;-60
2022/09/10 12:57:07;;;;;;;0.57;0.20;;;21.80;58.20;;;;;;5022601;28;20295;-60
2022/09/10 13:00:02;;;;;;;0.97;0.40;;;21.30;59.90;;;;;;5008867;28;20319;-59
2022/09/10 13:02:39;;;;;;;0.90;0.60;;;21.10;60.20;;;;;;4980914;28;20204;-60
2022/09/10 13:05:28;;;;;;;0.70;0.50;;;20.80;66.40;;;;;;4981847;28;20188;-59
2022/09/10 13:08:32;;;;;;;1.20;0.50;;;20.60;64.20;;;;;;4988523;28;20244;-60